Gretna, United Kingdom
Current Conditions -  °F | °C
As of 4:50 AM on Saturday 29 Nov 2014 (Local Time) from EGOM Reporting Station
Haze Haze  
Wind Chill:   Ceiling: 200
Heat Index:   Visibility: 1.3mi
Dew Point:   Wind: 9mph
Humidity: 100%   Direction: 70°ENE
Pressure: 29.83"   Gusts: NA
Location:  54.99°N, 3.07°W
Report Text: EGOM 290450Z AUTO 07008KT 2200 BR OVC002/// 07/07 Q1010
Loading
Personal Weather Stations






























Interactive Weather Map New forecast layout! Learn more

10-Day Weather Forecast

Advertisements
Track Severe Weather on mobile